Time;durP1;ratioP1;P1;durP2;ratioP2;P2;SDS_P1;SDS_P2;PMS_P1;PMS_P2;Temp;Humidity;BMP_temperature;BMP_pressure;BME280_temperature;BME280_humidity;BME280_pressure;Samples;Min_cycle;Max_cycle;Signal;HPM_P1;HPM_P2
2021/03/14 00:00:29;;;;;;;3.22;1.80;;;8.30;63.10;;;;;;2065221;28;20121;-59
2021/03/14 00:01:50;;;;;;;1.80;1.60;;;8.20;63.10;;;;;;2062221;28;20053;-60
2021/03/14 00:03:14;;;;;;;4.32;1.60;;;8.20;63.80;;;;;;2058313;28;20053;-60
2021/03/14 00:04:35;;;;;;;1.98;1.48;;;8.20;63.00;;;;;;2063642;28;20038;-60
2021/03/14 00:05:58;;;;;;;2.33;1.70;;;8.20;63.10;;;;;;2064063;28;20054;-60
2021/03/14 00:07:19;;;;;;;2.72;1.98;;;8.20;63.00;;;;;;2058551;28;20039;-60
2021/03/14 00:08:40;;;;;;;2.22;1.55;;;8.20;63.20;;;;;;2065671;28;20057;-61
2021/03/14 00:10:01;;;;;;;1.63;1.52;;;8.30;63.30;;;;;;2062843;28;20039;-59
2021/03/14 00:11:21;;;;;;;3.30;1.77;;;8.30;63.30;;;;;;2057416;28;20119;-60
2021/03/14 00:12:42;;;;;;;3.38;2.28;;;8.30;63.40;;;;;;2061615;28;20036;-60
2021/03/14 00:14:03;;;;;;;3.42;1.85;;;8.30;63.40;;;;;;2066010;28;20492;-59
2021/03/14 00:15:24;;;;;;;2.45;1.60;;;8.30;63.30;;;;;;2059232;28;20034;-59
2021/03/14 00:16:45;;;;;;;1.77;1.60;;;8.30;63.30;;;;;;2067342;28;20060;-60
2021/03/14 00:18:07;;;;;;;3.20;1.95;;;8.30;63.40;;;;;;2069867;28;20381;-60
2021/03/14 00:19:28;;;;;;;4.60;1.92;;;8.30;63.40;;;;;;2063263;28;20022;-58
2021/03/14 00:20:49;;;;;;;2.50;1.73;;;8.30;63.40;;;;;;2063875;28;20546;-59
2021/03/14 00:22:10;;;;;;;2.45;1.55;;;8.30;63.30;;;;;;2063820;28;20092;-58
2021/03/14 00:23:31;;;;;;;3.38;2.00;;;8.30;63.30;;;;;;2064356;28;20096;-60
2021/03/14 00:24:52;;;;;;;2.65;1.90;;;8.30;63.20;;;;;;2070813;28;20072;-61
2021/03/14 00:26:14;;;;;;;2.15;1.80;;;8.30;63.20;;;;;;2060478;28;20140;-60
2021/03/14 00:27:36;;;;;;;2.83;1.88;;;8.30;63.20;;;;;;2060993;28;20047;-59
2021/03/14 00:28:57;;;;;;;3.08;2.00;;;8.30;63.20;;;;;;2058815;28;20486;-61
2021/03/14 00:30:20;;;;;;;5.85;1.90;;;8.30;63.30;;;;;;2059430;28;20034;-59
2021/03/14 00:31:41;;;;;;;4.35;2.05;;;8.30;63.30;;;;;;2062389;28;20045;-59
2021/03/14 00:33:02;;;;;;;4.68;1.92;;;8.30;63.20;;;;;;2058885;28;20038;-60
2021/03/14 00:34:23;;;;;;;4.15;1.90;;;8.30;63.30;;;;;;2062699;28;20039;-59
2021/03/14 00:35:44;;;;;;;2.15;1.95;;;8.30;63.30;;;;;;2065355;28;20022;-59
2021/03/14 00:37:09;;;;;;;2.78;2.05;;;8.30;63.20;;;;;;2063327;28;20042;-59
2021/03/14 00:38:30;;;;;;;4.85;1.80;;;8.30;63.30;;;;;;2068450;28;20640;-59
2021/03/14 00:39:51;;;;;;;4.22;1.70;;;8.30;63.30;;;;;;2066939;28;20030;-59
2021/03/14 00:41:12;;;;;;;3.10;1.98;;;8.30;63.30;;;;;;2063833;28;20026;-60
2021/03/14 00:42:34;;;;;;;3.70;2.42;;;8.30;63.20;;;;;;2064103;28;20037;-61
2021/03/14 00:43:55;;;;;;;3.30;2.00;;;8.30;63.30;;;;;;2068936;28;20116;-59
2021/03/14 00:45:16;;;;;;;5.22;2.33;;;8.30;63.30;;;;;;2058495;28;20138;-60
2021/03/14 00:46:37;;;;;;;5.75;2.15;;;8.30;63.50;;;;;;2064895;28;20126;-60
2021/03/14 00:47:59;;;;;;;3.42;2.17;;;8.30;63.50;;;;;;2065390;28;20026;-59
2021/03/14 00:49:21;;;;;;;2.53;2.10;;;8.30;63.60;;;;;;2064630;28;20039;-60
2021/03/14 00:50:43;;;;;;;3.42;1.90;;;8.30;63.50;;;;;;2068061;28;20140;-60
2021/03/14 00:52:04;;;;;;;3.38;2.20;;;8.30;63.60;;;;;;2063796;28;20117;-60
2021/03/14 00:53:25;;;;;;;5.97;2.42;;;8.30;63.60;;;;;;2064677;28;20040;-59
2021/03/14 00:54:46;;;;;;;4.13;2.10;;;8.30;63.60;;;;;;2063972;28;20031;-60
2021/03/14 00:56:07;;;;;;;3.83;2.38;;;8.30;63.60;;;;;;2056367;28;20027;-59
2021/03/14 00:57:29;;;;;;;3.45;2.22;;;8.30;63.60;;;;;;2061377;28;20069;-60
2021/03/14 00:58:50;;;;;;;3.58;2.17;;;8.30;63.60;;;;;;2066451;28;21943;-58
2021/03/14 01:00:11;;;;;;;2.85;2.08;;;8.30;63.50;;;;;;2063547;28;20065;-61
2021/03/14 01:01:32;;;;;;;4.90;2.17;;;8.30;63.40;;;;;;2063225;28;20034;-59
2021/03/14 01:02:53;;;;;;;5.65;2.10;;;8.30;63.50;;;;;;2069080;28;20432;-60
2021/03/14 01:04:14;;;;;;;5.38;2.38;;;8.30;63.30;;;;;;2064409;28;20488;-60
2021/03/14 01:05:35;;;;;;;4.25;2.00;;;8.30;63.40;;;;;;2055586;28;20027;-59
2021/03/14 01:06:55;;;;;;;5.38;2.00;;;8.30;63.50;;;;;;2061844;28;20038;-59
2021/03/14 01:08:17;;;;;;;3.60;1.85;;;8.30;63.40;;;;;;2056921;28;20039;-60
2021/03/14 01:09:38;;;;;;;4.32;1.92;;;8.30;63.50;;;;;;2060057;28;20031;-60
2021/03/14 01:10:59;;;;;;;2.80;1.98;;;8.30;63.40;;;;;;2070493;28;20038;-59
2021/03/14 01:12:20;;;;;;;3.33;1.75;;;8.40;63.90;;;;;;2066112;28;20828;-59
2021/03/14 01:13:41;;;;;;;3.45;1.90;;;8.40;63.40;;;;;;2063078;28;20363;-60
2021/03/14 01:15:03;;;;;;;3.78;2.13;;;8.40;63.40;;;;;;2066779;28;20093;-59
2021/03/14 01:16:24;;;;;;;3.78;2.25;;;8.40;63.60;;;;;;2059661;28;20185;-61
2021/03/14 01:17:45;;;;;;;4.45;1.65;;;8.40;63.60;;;;;;2070332;28;20029;-60
2021/03/14 01:19:06;;;;;;;5.45;1.98;;;8.40;63.60;;;;;;2062785;28;20031;-60
2021/03/14 01:20:27;;;;;;;3.45;1.80;;;8.40;63.60;;;;;;2062698;28;20027;-59
2021/03/14 01:21:48;;;;;;;5.97;2.35;;;8.40;63.40;;;;;;2070661;28;20021;-61
2021/03/14 01:23:09;;;;;;;3.60;2.03;;;8.40;63.50;;;;;;2057605;28;20035;-61
2021/03/14 01:24:30;;;;;;;2.50;1.55;;;8.40;63.40;;;;;;2062363;28;20057;-61
2021/03/14 01:25:51;;;;;;;3.42;1.90;;;8.40;63.50;;;;;;2068825;28;20042;-59
2021/03/14 01:27:12;;;;;;;2.22;1.77;;;8.40;63.50;;;;;;2059243;28;20552;-59
2021/03/14 01:28:33;;;;;;;3.85;1.55;;;8.40;63.60;;;;;;2065092;28;20038;-59
2021/03/14 01:29:54;;;;;;;4.53;2.08;;;8.40;63.60;;;;;;2068456;28;20500;-59
2021/03/14 01:31:15;;;;;;;3.28;1.52;;;8.40;63.50;;;;;;2063631;28;20377;-60
2021/03/14 01:32:36;;;;;;;4.10;1.52;;;8.50;63.50;;;;;;2072166;28;20053;-58
2021/03/14 01:33:57;;;;;;;3.53;2.10;;;8.50;63.50;;;;;;2069113;28;20037;-60
2021/03/14 01:35:19;;;;;;;1.70;1.48;;;8.50;63.50;;;;;;2064286;28;20301;-60
2021/03/14 01:36:40;;;;;;;4.90;1.77;;;8.50;63.50;;;;;;2063960;28;20033;-59
2021/03/14 01:38:01;;;;;;;5.35;1.98;;;8.50;63.50;;;;;;2071610;28;20125;-59
2021/03/14 01:39:22;;;;;;;2.80;1.50;;;8.50;63.40;;;;;;2062753;28;20585;-59
2021/03/14 01:40:43;;;;;;;1.70;1.60;;;8.50;63.30;;;;;;2061719;28;20038;-59
2021/03/14 01:42:04;;;;;;;3.47;1.52;;;8.50;63.40;;;;;;2064632;28;20409;-59
2021/03/14 01:43:28;;;;;;;1.88;1.50;;;8.50;63.40;;;;;;2061451;28;20437;-59
2021/03/14 01:44:49;;;;;;;4.05;1.70;;;8.50;63.40;;;;;;2068002;28;20033;-59
2021/03/14 01:46:10;;;;;;;3.22;1.52;;;8.50;63.40;;;;;;2058497;28;20375;-61
2021/03/14 01:47:40;;;;;;;5.07;1.67;;;8.50;63.30;;;;;;2063616;28;20034;-61
2021/03/14 01:49:02;;;;;;;2.22;1.70;;;8.50;63.30;;;;;;2071650;28;20492;-60
2021/03/14 01:50:26;;;;;;;1.50;1.40;;;8.60;63.30;;;;;;2066786;28;20448;-59
2021/03/14 01:51:47;;;;;;;3.05;2.00;;;8.60;63.30;;;;;;2069814;28;20022;-60
2021/03/14 01:53:08;;;;;;;2.65;1.60;;;8.60;63.20;;;;;;2057759;28;20035;-60
2021/03/14 01:54:29;;;;;;;1.50;1.40;;;8.60;63.20;;;;;;2062415;28;20031;-59
2021/03/14 01:55:51;;;;;;;3.20;1.40;;;8.60;63.20;;;;;;2062676;28;20030;-59
2021/03/14 01:57:12;;;;;;;3.10;1.73;;;8.60;63.20;;;;;;2063569;28;20030;-59
2021/03/14 01:58:34;;;;;;;2.45;1.58;;;8.60;63.20;;;;;;2059073;28;20413;-60
2021/03/14 01:59:55;;;;;;;2.35;1.25;;;8.60;63.20;;;;;;2058359;28;20434;-59
2021/03/14 02:01:16;;;;;;;3.03;1.50;;;8.60;63.10;;;;;;2062868;28;20575;-59
2021/03/14 02:02:38;;;;;;;1.75;1.55;;;8.60;63.10;;;;;;2065361;28;20042;-60
2021/03/14 02:03:59;;;;;;;2.20;1.50;;;8.70;63.20;;;;;;2061797;28;20599;-59
2021/03/14 02:05:20;;;;;;;2.70;1.50;;;8.60;63.20;;;;;;2059399;28;20034;-59
2021/03/14 02:06:41;;;;;;;2.92;1.70;;;8.70;63.70;;;;;;2067488;28;20034;-59
2021/03/14 02:08:02;;;;;;;2.05;1.45;;;8.70;63.00;;;;;;2065118;28;20062;-60
2021/03/14 02:09:23;;;;;;;2.25;1.52;;;8.70;63.20;;;;;;2062746;28;20043;-60
2021/03/14 02:10:47;;;;;;;4.00;1.65;;;8.70;63.20;;;;;;2062016;28;20843;-60
2021/03/14 02:12:12;;;;;;;3.72;1.70;;;8.70;63.10;;;;;;2063605;28;20026;-60
2021/03/14 02:13:37;;;;;;;1.88;1.38;;;8.70;63.10;;;;;;2062735;28;20365;-61
2021/03/14 02:15:00;;;;;;;2.35;1.55;;;8.70;63.00;;;;;;2064688;28;20034;-60
2021/03/14 02:16:29;;;;;;;2.95;1.60;;;8.70;63.00;;;;;;2064367;28;20038;-59
2021/03/14 02:17:53;;;;;;;1.80;1.40;;;8.70;62.80;;;;;;2066318;28;20385;-59
2021/03/14 02:19:24;;;;;;;2.08;1.52;;;8.70;62.80;;;;;;2062798;28;20034;-60
2021/03/14 02:20:46;;;;;;;2.95;1.90;;;8.70;62.90;;;;;;2066405;28;20034;-59
2021/03/14 02:22:08;;;;;;;2.78;1.70;;;8.70;62.90;;;;;;2063305;28;20039;-60
2021/03/14 02:23:44;;;;;;;2.15;1.60;;;8.70;62.70;;;;;;2055232;28;20043;-59
2021/03/14 02:25:11;;;;;;;2.53;1.70;;;8.70;62.70;;;;;;2070060;28;20049;-60
2021/03/14 02:26:41;;;;;;;2.90;1.88;;;8.70;62.50;;;;;;2054623;28;20401;-60
2021/03/14 02:28:04;;;;;;;2.00;1.80;;;8.70;62.60;;;;;;2064101;28;20161;-58
2021/03/14 02:29:26;;;;;;;2.00;1.60;;;8.70;62.50;;;;;;2065974;28;20342;-60
2021/03/14 02:30:47;;;;;;;1.92;1.70;;;8.70;62.40;;;;;;2065341;28;20043;-59
2021/03/14 02:32:12;;;;;;;4.05;2.08;;;8.70;62.40;;;;;;2063899;28;20026;-59
2021/03/14 02:33:36;;;;;;;4.47;1.60;;;8.70;62.30;;;;;;2067606;28;20029;-59
2021/03/14 02:35:01;;;;;;;3.80;1.80;;;8.60;63.00;;;;;;2061694;28;20528;-59
2021/03/14 02:36:23;;;;;;;2.33;1.50;;;8.60;62.20;;;;;;2059865;28;20103;-61
2021/03/14 02:37:46;;;;;;;2.50;1.60;;;8.60;62.10;;;;;;2066806;28;20033;-60
2021/03/14 02:39:12;;;;;;;2.00;1.67;;;8.60;62.20;;;;;;2057024;28;20054;-60
2021/03/14 02:40:34;;;;;;;4.93;1.95;;;8.60;62.10;;;;;;2066378;28;20380;-60
2021/03/14 02:41:58;;;;;;;4.10;1.75;;;8.60;62.10;;;;;;2071062;28;20461;-60
2021/03/14 02:43:19;;;;;;;4.25;2.10;;;8.60;62.10;;;;;;2061885;28;20485;-60
2021/03/14 02:44:46;;;;;;;2.28;1.67;;;8.50;62.00;;;;;;2062175;28;20030;-60
2021/03/14 02:46:08;;;;;;;3.20;1.80;;;8.50;62.10;;;;;;2063812;28;20093;-60
2021/03/14 02:47:29;;;;;;;1.73;1.58;;;8.50;62.10;;;;;;2064766;28;20089;-60
2021/03/14 02:48:50;;;;;;;4.40;1.70;;;8.50;62.10;;;;;;2064210;28;20046;-60
2021/03/14 02:50:18;;;;;;;4.22;1.63;;;8.50;62.10;;;;;;2065091;28;20066;-60
2021/03/14 02:51:40;;;;;;;4.95;1.60;;;8.40;62.10;;;;;;2067335;28;20065;-61
2021/03/14 02:53:02;;;;;;;2.90;1.80;;;8.40;62.10;;;;;;2054025;28;20039;-60
2021/03/14 02:54:24;;;;;;;3.63;1.70;;;8.50;62.20;;;;;;2059121;28;20132;-60
2021/03/14 02:55:47;;;;;;;3.92;1.73;;;8.40;62.10;;;;;;2062120;28;20067;-60
2021/03/14 02:57:08;;;;;;;2.45;1.67;;;8.40;62.20;;;;;;2063358;28;20038;-60
2021/03/14 02:58:31;;;;;;;3.17;1.80;;;8.40;62.20;;;;;;2065099;28;20473;-60
2021/03/14 02:59:54;;;;;;;2.83;1.70;;;8.30;62.20;;;;;;2063985;28;20026;-61
2021/03/14 03:01:16;;;;;;;6.65;1.80;;;8.30;62.10;;;;;;2064245;28;20458;-61
2021/03/14 03:02:38;;;;;;;1.70;1.60;;;8.30;62.20;;;;;;2060529;28;20354;-61
2021/03/14 03:04:00;;;;;;;3.55;1.70;;;8.30;62.20;;;;;;2064601;28;20038;-61
2021/03/14 03:05:23;;;;;;;5.30;1.60;;;8.30;62.30;;;;;;2059784;28;20053;-61
2021/03/14 03:06:45;;;;;;;3.17;2.00;;;8.30;62.30;;;;;;2062717;28;20084;-60
2021/03/14 03:08:07;;;;;;;5.28;1.83;;;8.30;62.30;;;;;;2065213;28;20481;-60
2021/03/14 03:09:28;;;;;;;3.33;2.00;;;8.30;62.30;;;;;;2059340;28;20022;-60
2021/03/14 03:10:51;;;;;;;3.80;2.20;;;8.30;62.30;;;;;;2068935;28;20041;-61
2021/03/14 03:12:14;;;;;;;3.17;1.90;;;8.30;62.40;;;;;;2059781;28;20119;-60
2021/03/14 03:13:38;;;;;;;2.70;1.85;;;8.30;62.40;;;;;;2063963;28;20030;-60
2021/03/14 03:15:00;;;;;;;3.80;1.75;;;8.20;62.40;;;;;;2067112;28;20068;-60
2021/03/14 03:16:24;;;;;;;5.90;2.20;;;8.20;62.40;;;;;;2064789;28;20038;-61
2021/03/14 03:17:48;;;;;;;2.78;1.77;;;8.20;62.30;;;;;;2067902;28;20026;-60
2021/03/14 03:19:14;;;;;;;3.65;1.63;;;8.20;62.40;;;;;;2064969;28;20049;-60
2021/03/14 03:20:37;;;;;;;2.25;1.80;;;8.20;62.60;;;;;;2065478;28;20064;-60
2021/03/14 03:21:58;;;;;;;3.20;1.90;;;8.20;62.50;;;;;;2070454;28;20453;-60
2021/03/14 03:23:19;;;;;;;3.92;1.80;;;8.20;62.60;;;;;;2058012;28;20462;-60
2021/03/14 03:24:40;;;;;;;2.55;1.70;;;8.20;62.70;;;;;;2066133;28;20684;-60
2021/03/14 03:26:03;;;;;;;4.75;1.70;;;8.20;62.80;;;;;;2069934;28;20033;-60
2021/03/14 03:27:24;;;;;;;3.42;2.05;;;8.20;62.90;;;;;;2060365;28;20050;-61
2021/03/14 03:28:47;;;;;;;4.95;2.45;;;8.20;62.90;;;;;;2062673;28;20129;-60
2021/03/14 03:30:12;;;;;;;5.22;2.40;;;8.20;62.90;;;;;;2060901;28;20026;-60
2021/03/14 03:31:34;;;;;;;3.60;2.00;;;8.20;63.00;;;;;;2056809;28;20046;-60
2021/03/14 03:32:56;;;;;;;4.75;2.33;;;8.20;63.00;;;;;;2061637;28;20045;-60
2021/03/14 03:34:17;;;;;;;3.03;1.75;;;8.20;62.90;;;;;;2063417;28;20039;-61
2021/03/14 03:35:38;;;;;;;3.53;1.70;;;8.20;63.00;;;;;;2060964;28;20053;-60
2021/03/14 03:36:59;;;;;;;6.72;2.05;;;8.20;63.10;;;;;;2061650;28;20065;-60
2021/03/14 03:38:20;;;;;;;4.93;2.00;;;8.20;63.00;;;;;;2064073;28;20038;-61
2021/03/14 03:39:41;;;;;;;4.53;2.30;;;8.20;63.00;;;;;;2062142;28;20027;-60
2021/03/14 03:41:02;;;;;;;5.05;2.25;;;8.20;63.00;;;;;;2064433;28;20064;-61
2021/03/14 03:42:30;;;;;;;4.57;2.05;;;8.30;63.00;;;;;;2060235;28;20049;-60
2021/03/14 03:43:55;;;;;;;2.42;1.88;;;8.30;63.20;;;;;;2063489;28;20044;-61
2021/03/14 03:45:18;;;;;;;3.15;1.73;;;8.30;63.20;;;;;;2062572;28;20093;-61
2021/03/14 03:46:41;;;;;;;4.00;1.80;;;8.30;63.00;;;;;;2064464;28;20373;-60
2021/03/14 03:48:04;;;;;;;4.60;1.90;;;8.30;63.70;;;;;;2066730;28;20047;-60
2021/03/14 03:49:31;;;;;;;3.45;1.70;;;8.30;63.00;;;;;;2059377;28;20122;-60
2021/03/14 03:50:58;;;;;;;6.07;2.00;;;8.30;63.10;;;;;;2068071;28;20579;-60
2021/03/14 03:52:21;;;;;;;6.43;2.08;;;8.30;62.90;;;;;;2071553;28;20034;-60
2021/03/14 03:53:43;;;;;;;2.80;2.10;;;8.30;62.80;;;;;;2071374;28;20014;-60
2021/03/14 03:55:08;;;;;;;3.42;2.08;;;8.30;62.70;;;;;;2064259;28;20022;-61
2021/03/14 03:56:29;;;;;;;5.55;2.10;;;8.30;62.80;;;;;;2059714;28;20059;-60
2021/03/14 03:57:50;;;;;;;3.72;1.70;;;8.40;62.80;;;;;;2063012;28;20053;-60
2021/03/14 03:59:11;;;;;;;2.97;1.90;;;8.30;62.80;;;;;;2063823;28;20026;-60
2021/03/14 04:00:33;;;;;;;3.15;2.00;;;8.40;62.80;;;;;;2063336;28;20026;-60
2021/03/14 04:01:55;;;;;;;3.83;1.90;;;8.30;62.80;;;;;;2064540;28;20711;-61
2021/03/14 04:03:17;;;;;;;2.95;1.90;;;8.40;63.50;;;;;;2069524;28;20038;-60
2021/03/14 04:04:40;;;;;;;4.50;1.75;;;8.40;62.70;;;;;;2061226;28;20073;-60
2021/03/14 04:06:01;;;;;;;4.07;1.95;;;8.40;62.80;;;;;;2063171;28;20492;-60
2021/03/14 04:07:22;;;;;;;3.67;1.85;;;8.40;62.70;;;;;;2059665;28;20042;-60
2021/03/14 04:08:46;;;;;;;3.90;2.10;;;8.40;62.70;;;;;;2064107;28;20031;-60
2021/03/14 04:10:10;;;;;;;4.43;2.10;;;8.40;62.60;;;;;;2062939;28;20038;-60
2021/03/14 04:11:31;;;;;;;6.22;2.35;;;8.40;62.70;;;;;;2059666;28;20034;-60
2021/03/14 04:12:54;;;;;;;5.28;2.45;;;8.40;62.70;;;;;;2067274;28;20029;-60
2021/03/14 04:14:17;;;;;;;1.83;1.60;;;8.40;62.70;;;;;;2062559;28;20022;-60
2021/03/14 04:15:39;;;;;;;3.00;1.77;;;8.40;62.70;;;;;;2060713;28;20041;-60
2021/03/14 04:17:04;;;;;;;4.85;1.83;;;8.40;62.80;;;;;;2071371;28;20042;-60
2021/03/14 04:18:27;;;;;;;2.55;1.80;;;8.40;62.80;;;;;;2060843;28;20045;-61
2021/03/14 04:19:53;;;;;;;5.50;2.13;;;8.40;62.80;;;;;;2056185;28;20413;-60
2021/03/14 04:21:16;;;;;;;4.32;2.17;;;8.40;62.70;;;;;;2060892;28;20073;-60
2021/03/14 04:22:38;;;;;;;4.72;1.75;;;8.40;62.60;;;;;;2069632;28;20026;-60
2021/03/14 04:24:01;;;;;;;5.43;2.10;;;8.40;62.60;;;;;;2061455;28;20030;-60
2021/03/14 04:25:24;;;;;;;5.60;2.35;;;8.40;62.50;;;;;;2048879;28;20437;-60
2021/03/14 04:26:46;;;;;;;6.53;2.40;;;8.40;62.50;;;;;;2066120;28;20030;-60
2021/03/14 04:28:08;;;;;;;5.30;2.55;;;8.40;62.50;;;;;;2068296;28;20424;-60
2021/03/14 04:29:31;;;;;;;4.47;2.35;;;8.40;62.40;;;;;;2061375;28;20046;-60
2021/03/14 04:30:53;;;;;;;7.88;3.83;;;8.40;62.50;;;;;;2062515;28;20425;-60
2021/03/14 04:32:15;;;;;;;4.28;1.95;;;8.40;62.50;;;;;;2062485;28;20088;-60
2021/03/14 04:33:37;;;;;;;6.25;2.10;;;8.40;62.50;;;;;;2061810;28;20034;-60
2021/03/14 04:34:59;;;;;;;3.10;1.90;;;8.40;62.60;;;;;;2063155;28;20482;-60
2021/03/14 04:36:21;;;;;;;3.65;2.35;;;8.40;62.50;;;;;;2063390;28;20061;-60
2021/03/14 04:37:42;;;;;;;4.45;2.10;;;8.40;62.50;;;;;;2066615;28;20384;-60
2021/03/14 04:39:04;;;;;;;5.82;2.17;;;8.40;62.50;;;;;;2063078;28;20101;-60
2021/03/14 04:40:27;;;;;;;5.10;2.30;;;8.40;62.50;;;;;;2053519;28;20042;-60
2021/03/14 04:41:49;;;;;;;2.75;2.30;;;8.40;62.40;;;;;;2062951;28;20021;-60
2021/03/14 04:43:11;;;;;;;5.72;2.33;;;8.40;62.40;;;;;;2062343;28;20035;-61
2021/03/14 04:44:32;;;;;;;4.32;1.98;;;8.40;62.40;;;;;;2065993;28;20034;-61
2021/03/14 04:45:54;;;;;;;5.47;2.33;;;8.40;62.30;;;;;;2063420;28;20039;-60
2021/03/14 04:47:15;;;;;;;3.92;2.10;;;8.40;62.30;;;;;;2063007;28;20058;-60
2021/03/14 04:48:36;;;;;;;6.40;2.40;;;8.40;62.30;;;;;;2053034;28;20015;-60
2021/03/14 04:49:58;;;;;;;4.80;2.20;;;8.40;62.20;;;;;;2061316;28;20058;-60
2021/03/14 04:51:19;;;;;;;4.25;2.00;;;8.40;62.20;;;;;;2063784;28;20084;-60
2021/03/14 04:52:43;;;;;;;6.93;2.38;;;8.30;62.20;;;;;;2067055;28;20022;-60
2021/03/14 04:54:05;;;;;;;4.70;2.28;;;8.30;62.20;;;;;;2062408;28;20081;-60
2021/03/14 04:55:28;;;;;;;5.38;2.47;;;8.30;62.10;;;;;;2062385;28;20027;-60
2021/03/14 04:56:50;;;;;;;5.47;2.05;;;8.30;62.10;;;;;;2064642;28;20026;-61
2021/03/14 04:58:14;;;;;;;4.40;2.13;;;8.30;62.10;;;;;;2063106;28;20430;-60
2021/03/14 04:59:37;;;;;;;3.97;2.10;;;8.30;62.20;;;;;;2067368;28;20026;-61
2021/03/14 05:01:01;;;;;;;7.80;2.30;;;8.30;62.20;;;;;;2072580;28;20097;-62
2021/03/14 05:02:23;;;;;;;4.05;2.55;;;8.20;62.20;;;;;;2064120;28;20030;-60
2021/03/14 05:03:46;;;;;;;5.28;2.30;;;8.20;62.20;;;;;;2065511;28;20034;-61
2021/03/14 05:05:09;;;;;;;5.88;2.58;;;8.20;62.10;;;;;;2064767;28;20113;-61
2021/03/14 05:06:31;;;;;;;4.07;2.53;;;8.20;62.00;;;;;;2062901;28;20033;-60
2021/03/14 05:07:53;;;;;;;4.40;2.42;;;8.20;62.10;;;;;;2066506;28;20038;-60
2021/03/14 05:09:16;;;;;;;7.68;2.90;;;8.20;62.10;;;;;;2062767;28;20038;-60
2021/03/14 05:10:39;;;;;;;5.60;2.50;;;8.20;62.10;;;;;;2067749;28;20042;-60
2021/03/14 05:12:00;;;;;;;4.65;2.40;;;8.20;62.20;;;;;;2068999;28;20054;-61
2021/03/14 05:13:21;;;;;;;5.95;3.00;;;8.20;62.20;;;;;;2065758;28;20062;-60
2021/03/14 05:14:42;;;;;;;5.82;2.40;;;8.10;62.20;;;;;;2062378;28;20042;-61
2021/03/14 05:16:04;;;;;;;4.45;2.42;;;8.20;62.30;;;;;;2065737;28;20481;-60
2021/03/14 05:17:25;;;;;;;4.20;2.47;;;8.10;62.20;;;;;;2060865;28;20062;-61
2021/03/14 05:18:47;;;;;;;3.40;2.55;;;8.10;62.20;;;;;;2068211;28;20330;-61
2021/03/14 05:20:11;;;;;;;4.70;2.30;;;8.10;62.20;;;;;;2064074;28;20049;-60
2021/03/14 05:21:32;;;;;;;4.53;2.30;;;8.10;62.10;;;;;;2061742;28;20058;-61
2021/03/14 05:22:55;;;;;;;4.13;2.20;;;8.10;62.20;;;;;;2063573;28;20038;-60
2021/03/14 05:24:16;;;;;;;2.67;2.47;;;8.10;62.30;;;;;;2058813;28;20031;-60
2021/03/14 05:25:39;;;;;;;4.45;2.30;;;8.10;62.40;;;;;;2062749;28;20096;-60
2021/03/14 05:27:02;;;;;;;5.07;2.25;;;8.10;62.30;;;;;;2062979;28;20040;-60
2021/03/14 05:28:24;;;;;;;7.70;3.15;;;8.10;62.30;;;;;;2065462;28;20057;-60
2021/03/14 05:29:46;;;;;;;5.82;2.42;;;8.10;62.30;;;;;;2067843;28;20038;-60
2021/03/14 05:31:32;;;;;;;4.00;2.50;;;8.10;62.30;;;;;;2067374;28;20350;-59
2021/03/14 05:32:55;;;;;;;7.78;2.63;;;8.10;62.40;;;;;;2058243;28;20116;-60
2021/03/14 05:34:17;;;;;;;7.47;2.55;;;8.10;62.30;;;;;;2057607;28;20045;-60
2021/03/14 05:35:39;;;;;;;3.40;1.98;;;8.10;62.30;;;;;;2065733;28;20646;-60
2021/03/14 05:36:59;;;;;;;4.68;2.65;;;8.10;62.30;;;;;;2072486;28;20065;-60
2021/03/14 05:38:20;;;;;;;6.85;2.58;;;8.10;62.30;;;;;;2065479;28;20019;-59
2021/03/14 05:39:41;;;;;;;3.55;2.08;;;8.00;62.30;;;;;;2067818;28;20025;-60
2021/03/14 05:41:04;;;;;;;6.70;2.30;;;8.00;62.20;;;;;;2064229;28;20041;-60
2021/03/14 05:42:26;;;;;;;3.55;1.77;;;8.00;62.90;;;;;;2065453;28;20038;-60
2021/03/14 05:43:48;;;;;;;4.78;2.10;;;8.00;62.20;;;;;;2066533;28;20104;-61
2021/03/14 05:45:11;;;;;;;6.00;2.47;;;8.00;62.20;;;;;;2064720;28;20043;-60
2021/03/14 05:46:32;;;;;;;8.68;2.25;;;8.00;62.20;;;;;;2071363;28;20038;-60
2021/03/14 05:47:53;;;;;;;5.95;2.50;;;8.00;62.20;;;;;;2064816;28;20088;-60
2021/03/14 05:49:14;;;;;;;5.95;2.40;;;8.00;62.20;;;;;;2059747;28;20034;-60
2021/03/14 05:50:35;;;;;;;5.93;2.53;;;8.00;62.20;;;;;;2062125;28;20558;-60
2021/03/14 05:51:58;;;;;;;6.30;2.20;;;8.00;62.10;;;;;;2063449;28;20038;-60
2021/03/14 05:53:19;;;;;;;4.45;2.15;;;8.00;62.30;;;;;;2065186;28;20149;-61
2021/03/14 05:54:40;;;;;;;5.70;2.53;;;8.00;62.30;;;;;;2063124;28;20529;-61
2021/03/14 05:56:02;;;;;;;9.63;2.67;;;8.00;62.30;;;;;;2065714;28;20122;-61
2021/03/14 05:57:23;;;;;;;5.00;2.50;;;8.00;62.30;;;;;;2061401;28;20477;-60
2021/03/14 05:58:45;;;;;;;5.63;2.58;;;8.00;62.20;;;;;;2065863;28;20030;-60
2021/03/14 06:00:07;;;;;;;4.97;2.30;;;8.00;62.20;;;;;;2064590;28;20035;-60
2021/03/14 06:01:30;;;;;;;5.72;2.55;;;8.00;62.30;;;;;;2066222;28;20066;-60
2021/03/14 06:02:53;;;;;;;5.25;2.47;;;8.00;62.30;;;;;;2056930;28;20054;-60
2021/03/14 06:04:16;;;;;;;5.18;2.15;;;8.00;62.40;;;;;;2061647;28;20030;-60
2021/03/14 06:05:36;;;;;;;3.80;1.90;;;8.00;62.50;;;;;;2068316;28;20687;-61
2021/03/14 06:06:57;;;;;;;6.50;2.40;;;8.00;62.50;;;;;;2060824;28;20042;-60
2021/03/14 06:08:18;;;;;;;7.70;2.47;;;8.00;62.60;;;;;;2064005;28;20062;-61
2021/03/14 06:09:40;;;;;;;8.60;2.80;;;8.00;62.60;;;;;;2063618;28;20037;-60
2021/03/14 06:11:06;;;;;;;5.30;2.28;;;8.00;62.70;;;;;;2066137;28;20129;-61
2021/03/14 06:12:29;;;;;;;5.95;2.45;;;8.00;62.70;;;;;;2062089;28;20113;-60
2021/03/14 06:13:50;;;;;;;3.65;2.30;;;8.00;62.70;;;;;;2063461;28;20088;-60
2021/03/14 06:15:12;;;;;;;5.55;2.55;;;8.00;62.80;;;;;;2062669;28;20058;-59
2021/03/14 06:16:33;;;;;;;6.18;2.40;;;8.00;62.90;;;;;;2061146;28;20026;-61
2021/03/14 06:17:54;;;;;;;5.65;2.38;;;8.00;62.80;;;;;;2065535;28;20331;-60
2021/03/14 06:19:15;;;;;;;5.63;2.42;;;8.00;62.80;;;;;;2058935;28;20035;-60
2021/03/14 06:20:38;;;;;;;6.22;2.17;;;8.00;62.80;;;;;;2063628;28;20034;-60
2021/03/14 06:22:19;;;;;;;5.82;2.65;;;8.10;63.00;;;;;;2067395;28;20641;-58
2021/03/14 06:23:57;;;;;;;6.32;2.40;;;8.10;63.10;;;;;;2066101;28;20364;-61
2021/03/14 06:25:27;;;;;;;4.95;2.53;;;8.10;63.00;;;;;;2059403;28;20034;-61
2021/03/14 06:26:49;;;;;;;4.35;2.40;;;8.10;62.90;;;;;;2063322;28;20331;-60
2021/03/14 06:28:11;;;;;;;6.95;2.72;;;8.10;62.90;;;;;;2068742;28;20014;-60
2021/03/14 06:29:32;;;;;;;7.68;2.85;;;8.10;62.90;;;;;;2063897;28;20062;-60
2021/03/14 06:30:53;;;;;;;5.47;2.35;;;8.10;62.90;;;;;;2064706;28;20093;-61
2021/03/14 06:32:14;;;;;;;9.55;2.80;;;8.20;63.10;;;;;;2063635;28;20030;-61
2021/03/14 06:33:35;;;;;;;5.35;2.50;;;8.20;63.00;;;;;;2062861;28;20440;-60
2021/03/14 06:35:18;;;;;;;7.18;2.47;;;8.20;62.90;;;;;;2069334;28;20053;-60
2021/03/14 06:36:39;;;;;;;5.07;2.30;;;8.20;62.90;;;;;;2063170;28;20041;-58
2021/03/14 06:38:29;;;;;;;7.63;2.50;;;8.20;62.90;;;;;;2064188;28;20030;-59
2021/03/14 06:39:50;;;;;;;6.45;2.83;;;8.20;63.10;;;;;;2061694;28;20027;-58
2021/03/14 06:41:19;;;;;;;7.53;2.70;;;8.30;63.10;;;;;;2066785;28;20764;-61
2021/03/14 06:42:41;;;;;;;6.20;2.75;;;8.30;63.10;;;;;;2063454;28;20030;-60
2021/03/14 06:44:02;;;;;;;5.90;2.78;;;8.30;63.20;;;;;;2064047;28;20134;-60
2021/03/14 06:45:23;;;;;;;7.20;2.92;;;8.30;63.20;;;;;;2064028;28;20072;-61
2021/03/14 06:46:44;;;;;;;5.68;2.35;;;8.30;63.20;;;;;;2065031;28;20045;-61
2021/03/14 06:48:05;;;;;;;4.75;2.53;;;8.40;63.30;;;;;;2064813;28;20494;-58
2021/03/14 06:49:29;;;;;;;5.93;2.38;;;8.40;63.30;;;;;;2064277;28;20462;-59
2021/03/14 06:50:51;;;;;;;4.50;2.33;;;8.40;63.20;;;;;;2068577;28;20061;-59
2021/03/14 06:52:12;;;;;;;6.88;2.58;;;8.40;63.20;;;;;;2071478;28;20034;-60
2021/03/14 06:53:32;;;;;;;5.85;2.22;;;8.50;63.10;;;;;;2064687;28;20547;-58
2021/03/14 06:54:53;;;;;;;5.05;2.10;;;8.50;63.10;;;;;;2065882;28;20490;-59
2021/03/14 06:56:14;;;;;;;6.47;2.55;;;8.50;63.20;;;;;;2063375;28;20117;-59
2021/03/14 06:57:35;;;;;;;6.57;2.60;;;8.50;63.20;;;;;;2067828;28;20034;-61
2021/03/14 06:58:56;;;;;;;6.32;2.60;;;8.50;63.20;;;;;;2066167;28;20033;-60
2021/03/14 07:00:20;;;;;;;5.35;2.45;;;8.60;63.20;;;;;;2058374;28;20061;-60
2021/03/14 07:01:58;;;;;;;6.30;2.47;;;8.60;63.20;;;;;;2061974;28;20070;-59
2021/03/14 07:03:25;;;;;;;6.15;2.30;;;8.60;63.40;;;;;;2064214;28;20026;-61
2021/03/14 07:04:54;;;;;;;2.97;2.08;;;8.60;63.20;;;;;;2068007;28;20128;-60
2021/03/14 07:06:18;;;;;;;8.57;2.55;;;8.60;63.10;;;;;;2064684;28;20037;-61
2021/03/14 07:07:41;;;;;;;5.28;2.45;;;8.70;63.30;;;;;;2068733;28;20026;-60
2021/03/14 07:09:10;;;;;;;4.55;2.10;;;8.70;63.30;;;;;;2064376;28;20030;-61
2021/03/14 07:10:37;;;;;;;4.38;2.13;;;8.70;63.50;;;;;;2061962;28;20121;-60
2021/03/14 07:11:59;;;;;;;8.93;2.55;;;8.70;63.60;;;;;;2062185;28;20034;-59
2021/03/14 07:13:20;;;;;;;4.15;2.67;;;8.70;63.20;;;;;;2063564;28;20433;-61
2021/03/14 07:14:41;;;;;;;5.63;2.60;;;8.70;63.10;;;;;;2063448;28;20101;-60
2021/03/14 07:16:02;;;;;;;6.72;2.67;;;8.70;63.10;;;;;;2070821;28;20042;-60